createdAt,value
2019-04-05T00:00:33.516Z,65.13
2019-04-05T00:03:42.141Z,65.06
2019-04-05T00:06:49.179Z,65.12
2019-04-05T00:09:57.865Z,65.11
2019-04-05T00:13:06.895Z,65.20
2019-04-05T00:16:15.457Z,65.33
2019-04-05T00:19:24.129Z,65.23
2019-04-05T00:22:32.960Z,65.24
2019-04-05T00:25:41.498Z,65.08
2019-04-05T00:28:53.160Z,65.13
2019-04-05T00:32:12.162Z,65.14
2019-04-05T00:35:20.795Z,65.13
2019-04-05T00:38:29.504Z,64.96
2019-04-05T00:41:39.169Z,64.93
2019-04-05T00:44:47.790Z,65.04
2019-04-05T00:48:06.887Z,65.00
2019-04-05T00:51:15.598Z,65.01
2019-04-05T00:54:24.202Z,65.18
2019-04-05T00:57:32.894Z,65.25
2019-04-05T01:00:42.708Z,65.29
2019-04-05T01:03:51.368Z,65.31
2019-04-05T01:07:00.109Z,65.20
2019-04-05T01:10:19.134Z,65.26
2019-04-05T01:13:28.134Z,65.41
2019-04-05T01:16:47.089Z,65.47
2019-04-05T01:19:58.713Z,65.48
2019-04-05T01:23:08.823Z,65.77
2019-04-05T01:26:18.926Z,66.06
2019-04-05T01:29:38.837Z,66.05
2019-04-05T01:32:48.689Z,66.08
2019-04-05T01:36:07.461Z,65.91
2019-04-05T01:39:16.161Z,65.86
2019-04-05T01:42:24.896Z,65.65
2019-04-05T01:45:33.789Z,65.61
2019-04-05T01:48:42.453Z,65.29
2019-04-05T01:51:51.091Z,65.30
2019-04-05T01:54:59.807Z,65.32
2019-04-05T01:58:08.446Z,65.24
2019-04-05T02:01:17.303Z,65.14
2019-04-05T02:04:26.046Z,64.94
2019-04-05T02:07:34.770Z,64.82
2019-04-05T02:10:44.132Z,64.88
2019-04-05T02:13:52.952Z,65.00
2019-04-05T02:17:01.741Z,65.10
2019-04-05T02:20:21.209Z,65.12
2019-04-05T02:23:29.879Z,64.89
2019-04-05T02:26:38.650Z,64.82
2019-04-05T02:29:47.345Z,64.85
2019-04-05T02:32:55.958Z,64.69
2019-04-05T02:36:04.744Z,64.53
2019-04-05T02:39:13.488Z,64.69
2019-04-05T02:42:23.886Z,64.70
2019-04-05T02:45:35.907Z,64.84
2019-04-05T02:48:46.988Z,64.43
2019-04-05T02:51:56.844Z,64.48
2019-04-05T02:55:06.035Z,64.28
2019-04-05T02:58:15.361Z,64.12
2019-04-05T03:01:35.281Z,64.11
2019-04-05T03:04:43.986Z,63.96
2019-04-05T03:07:51.602Z,63.64
2019-04-05T03:11:12.551Z,63.37
2019-04-05T03:14:22.417Z,63.38
2019-04-05T03:17:31.030Z,63.51
2019-04-05T03:20:39.853Z,63.54
2019-04-05T03:23:49.251Z,63.77
2019-04-05T03:27:05.403Z,63.96
2019-04-05T03:30:14.161Z,63.84
2019-04-05T03:33:22.699Z,63.81
2019-04-05T03:36:31.664Z,63.75
2019-04-05T03:39:40.625Z,63.75
2019-04-05T03:42:49.290Z,63.84
2019-04-05T03:45:57.922Z,63.94
2019-04-05T03:49:07.340Z,63.70
2019-04-05T03:52:15.879Z,63.69
2019-04-05T03:55:35.346Z,63.84
2019-04-05T03:58:43.950Z,63.58
2019-04-05T04:01:52.922Z,63.60
2019-04-05T04:05:01.527Z,63.31
2019-04-05T04:08:10.610Z,63.35
2019-04-05T04:11:19.216Z,63.40
2019-04-05T04:14:28.074Z,63.47
2019-04-05T04:17:36.610Z,63.53
2019-04-05T04:21:00.425Z,63.65
2019-04-05T04:24:19.654Z,63.58
2019-04-05T04:27:29.203Z,63.67
2019-04-05T04:30:39.128Z,63.29
2019-04-05T04:33:48.637Z,63.43
2019-04-05T04:36:57.396Z,63.33
2019-04-05T04:40:06.976Z,63.09
2019-04-05T04:43:27.510Z,63.23
2019-04-05T04:46:36.168Z,63.50
2019-04-05T04:49:45.061Z,63.74
2019-04-05T04:52:54.010Z,63.76
2019-04-05T04:56:02.869Z,63.78
2019-04-05T04:59:11.594Z,63.90
2019-04-05T05:02:20.119Z,63.76
2019-04-05T05:05:29.025Z,63.72
2019-04-05T05:08:37.853Z,63.96
2019-04-05T05:11:46.689Z,64.15
2019-04-05T05:14:55.512Z,64.29
2019-04-05T05:18:04.441Z,64.44
2019-04-05T05:21:11.847Z,64.15
2019-04-05T05:24:20.632Z,64.11
2019-04-05T05:27:40.069Z,64.03
2019-04-05T05:30:59.216Z,64.18
2019-04-05T05:34:07.980Z,64.00
2019-04-05T05:37:16.944Z,63.98
2019-04-05T05:40:36.021Z,63.85
2019-04-05T05:43:44.670Z,63.88
2019-04-05T05:46:53.326Z,63.74
2019-04-05T05:50:03.015Z,63.76
2019-04-05T05:53:22.157Z,63.47
2019-04-05T05:56:41.114Z,63.57
2019-04-05T05:59:49.647Z,63.25
2019-04-05T06:02:58.211Z,63.03
2019-04-05T06:06:07.188Z,63.22
2019-04-05T06:09:15.899Z,62.87
2019-04-05T06:12:24.448Z,62.60
2019-04-05T06:15:37.640Z,62.24
2019-04-05T06:18:48.539Z,62.16
2019-04-05T06:21:56.854Z,62.27
2019-04-05T06:25:06.166Z,62.48
2019-04-05T06:28:14.713Z,62.58
2019-04-05T06:31:24.455Z,62.66
2019-04-05T06:34:33.026Z,62.78
2019-04-05T06:37:43.195Z,62.72
2019-04-05T06:40:51.755Z,62.58
2019-04-05T06:44:00.260Z,62.33
2019-04-05T06:47:08.885Z,62.48
2019-04-05T06:50:27.857Z,61.92
2019-04-05T06:53:36.388Z,61.90
2019-04-05T06:56:45.010Z,61.85
2019-04-05T06:59:53.576Z,61.81
2019-04-05T07:03:02.351Z,61.81
2019-04-05T07:06:10.879Z,61.84
2019-04-05T07:09:19.386Z,61.66
2019-04-05T07:12:38.288Z,61.32
2019-04-05T07:15:46.965Z,61.37
2019-04-05T07:18:55.569Z,61.27
2019-04-05T07:22:04.114Z,61.30
2019-04-05T07:25:13.186Z,61.41
2019-04-05T07:28:25.129Z,61.08
2019-04-05T07:31:34.071Z,60.51
2019-04-05T07:34:42.620Z,60.46
2019-04-05T07:37:53.392Z,60.41
2019-04-05T07:41:01.713Z,60.29
2019-04-05T07:44:10.223Z,60.17
2019-04-05T07:47:18.787Z,59.84
2019-04-05T07:50:37.619Z,59.66
2019-04-05T07:53:46.159Z,59.86
2019-04-05T07:56:54.811Z,60.04
2019-04-05T08:00:03.500Z,60.11
2019-04-05T08:03:13.449Z,60.27
2019-04-05T08:06:35.041Z,60.25
2019-04-05T08:09:44.160Z,59.99
2019-04-05T08:12:53.298Z,59.94
2019-04-05T08:16:12.337Z,59.93
2019-04-05T08:19:20.995Z,59.89
2019-04-05T08:22:32.169Z,59.78
2019-04-05T08:25:41.329Z,59.62
2019-04-05T08:28:50.036Z,59.51
2019-04-05T08:31:58.999Z,59.20
2019-04-05T08:35:07.675Z,58.50
2019-04-05T08:38:18.047Z,58.53
2019-04-05T08:41:26.664Z,58.29
2019-04-05T08:44:35.311Z,58.54
2019-04-05T08:47:54.163Z,58.53
2019-04-05T08:51:02.969Z,57.97
2019-04-05T08:54:11.634Z,58.46
2019-04-05T08:57:20.255Z,58.70
2019-04-05T09:00:28.955Z,58.29
2019-04-05T09:03:37.613Z,57.96
2019-04-05T09:06:46.188Z,57.50
2019-04-05T09:09:54.737Z,57.15
2019-04-05T09:13:03.349Z,57.17
2019-04-05T09:16:22.336Z,57.13
2019-04-05T09:19:31.009Z,57.34
2019-04-05T09:22:39.651Z,57.62
2019-04-05T09:25:48.392Z,56.98
2019-04-05T09:28:57.106Z,57.32
2019-04-05T09:32:05.816Z,57.65
2019-04-05T09:35:14.693Z,57.03
2019-04-05T09:38:23.333Z,56.68
2019-04-05T09:41:32.144Z,55.89
2019-04-05T09:44:42.126Z,55.59
2019-04-05T09:47:50.779Z,55.47
2019-04-05T09:51:09.728Z,54.78
2019-04-05T09:54:18.385Z,54.44
2019-04-05T09:57:27.006Z,54.51
2019-04-05T10:00:35.647Z,54.73
2019-04-05T10:03:44.275Z,54.99
2019-04-05T10:06:52.915Z,54.58
2019-04-05T10:10:01.471Z,54.65
2019-04-05T10:13:20.321Z,53.89
2019-04-05T10:16:28.969Z,54.44
2019-04-05T10:19:49.343Z,53.74
2019-04-05T10:22:47.978Z,54.23
2019-04-05T10:25:56.610Z,53.62
2019-04-05T10:29:16.566Z,53.48
2019-04-05T10:32:25.219Z,53.54
2019-04-05T10:35:33.852Z,53.63
2019-04-05T10:38:42.494Z,53.58
2019-04-05T10:42:02.864Z,53.70
2019-04-05T10:45:03.289Z,53.75
2019-04-05T10:48:11.911Z,54.03
2019-04-05T10:51:20.544Z,53.87
2019-04-05T10:54:29.164Z,52.73
2019-04-05T10:57:37.849Z,52.34
2019-04-05T11:00:56.756Z,51.81
2019-04-05T11:04:05.500Z,51.39
2019-04-05T11:07:14.427Z,51.20
2019-04-05T11:10:23.064Z,51.17
2019-04-05T11:13:31.694Z,51.58
2019-04-05T11:16:40.213Z,51.15
2019-04-05T11:19:48.748Z,50.76
2019-04-05T11:22:57.284Z,50.55
2019-04-05T11:26:35.601Z,50.58
2019-04-05T11:29:44.269Z,50.59
2019-04-05T11:32:53.112Z,50.30
2019-04-05T11:36:01.718Z,49.86
2019-04-05T11:39:11.020Z,49.94
2019-04-05T11:42:21.953Z,49.23
2019-04-05T11:45:31.316Z,48.98
2019-04-05T11:48:41.389Z,49.02
2019-04-05T11:51:50.506Z,49.74
2019-04-05T11:54:59.059Z,51.12
2019-04-05T11:58:07.676Z,51.47
2019-04-05T12:01:28.909Z,51.26
2019-04-05T12:04:52.684Z,51.06
2019-04-05T12:08:02.100Z,50.11
2019-04-05T12:11:10.777Z,50.23
2019-04-05T12:14:29.586Z,49.19
2019-04-05T12:17:29.744Z,48.75
2019-04-05T12:20:49.169Z,48.73
2019-04-05T12:23:48.715Z,48.15
2019-04-05T12:26:57.326Z,47.73
2019-04-05T12:30:19.761Z,46.52
2019-04-05T12:33:28.270Z,46.05
2019-04-05T12:36:36.807Z,45.70
2019-04-05T12:39:45.470Z,45.44
2019-04-05T12:42:54.082Z,46.08
2019-04-05T12:46:03.417Z,45.38
2019-04-05T12:49:13.373Z,44.55
2019-04-05T12:52:25.055Z,44.34
2019-04-05T12:55:32.774Z,44.34
2019-04-05T12:58:41.383Z,44.39
2019-04-05T13:01:50.028Z,44.58
2019-04-05T13:04:58.733Z,44.60
2019-04-05T13:08:07.347Z,45.95
2019-04-05T13:11:16.003Z,45.52
2019-04-05T13:14:34.989Z,45.75
2019-04-05T13:17:43.727Z,45.82
2019-04-05T13:20:52.374Z,45.99
2019-04-05T13:24:03.931Z,46.44
2019-04-05T13:27:11.698Z,47.34
2019-04-05T13:30:21.230Z,48.48
2019-04-05T13:33:29.868Z,48.67
2019-04-05T13:36:38.510Z,48.76
2019-04-05T13:40:00.037Z,48.81
2019-04-05T13:43:08.490Z,49.57
2019-04-05T13:46:22.208Z,48.99
2019-04-05T13:49:27.419Z,49.42
2019-04-05T13:52:46.546Z,49.34
2019-04-05T13:55:55.062Z,49.40
2019-04-05T13:59:03.700Z,49.72
2019-04-05T14:02:12.313Z,49.85
2019-04-05T14:05:22.268Z,49.68
2019-04-05T14:08:32.553Z,49.89
2019-04-05T14:11:41.269Z,49.83
2019-04-05T14:15:00.219Z,50.07
2019-04-05T14:18:08.641Z,49.91
2019-04-05T14:21:39.786Z,50.12
2019-04-05T14:24:38.692Z,50.18
2019-04-05T14:27:47.277Z,50.83
2019-04-05T14:30:56.003Z,51.10
2019-04-05T14:34:04.725Z,50.92
2019-04-05T14:37:13.347Z,51.35
2019-04-05T14:40:22.123Z,51.17
2019-04-05T14:43:30.686Z,51.44
2019-04-05T14:46:39.317Z,51.04
2019-04-05T14:49:49.291Z,50.73
2019-04-05T14:53:00.795Z,50.58
2019-04-05T14:56:08.160Z,51.54
2019-04-05T14:59:16.815Z,51.37
2019-04-05T15:02:25.412Z,51.18
2019-04-05T15:05:34.065Z,51.17
2019-04-05T15:08:42.798Z,51.31
2019-04-05T15:11:51.423Z,51.54
2019-04-05T15:15:00.018Z,51.55
2019-04-05T15:18:19.662Z,51.28
2019-04-05T15:21:28.627Z,51.54
2019-04-05T15:24:37.282Z,51.43
2019-04-05T15:27:45.824Z,52.29
2019-04-05T15:31:04.682Z,52.28
2019-04-05T15:34:13.276Z,52.61
2019-04-05T15:37:21.543Z,52.43
2019-04-05T15:40:30.884Z,52.09
2019-04-05T15:43:50.506Z,52.05
2019-04-05T15:46:59.271Z,51.96
2019-04-05T15:50:09.695Z,51.83
2019-04-05T15:53:18.382Z,52.06
2019-04-05T15:56:26.960Z,51.92
2019-04-05T15:59:35.699Z,52.30
2019-04-05T16:02:44.255Z,52.22
2019-04-05T16:05:52.911Z,52.04
2019-04-05T16:09:01.591Z,52.16
2019-04-05T16:12:10.270Z,52.59
2019-04-05T16:15:17.875Z,53.00
2019-04-05T16:18:26.440Z,53.37
2019-04-05T16:21:35.012Z,54.13
2019-04-05T16:24:53.860Z,54.26
2019-04-05T16:28:04.233Z,54.38
2019-04-05T16:31:12.809Z,53.97
2019-04-05T16:34:21.412Z,53.73
2019-04-05T16:37:30.091Z,54.30
2019-04-05T16:40:38.919Z,54.11
2019-04-05T16:43:47.556Z,54.46
2019-04-05T16:46:56.322Z,54.72
2019-04-05T16:50:06.962Z,54.81
2019-04-05T16:53:15.664Z,54.91
2019-04-05T16:56:24.403Z,55.34
2019-04-05T16:59:33.042Z,55.01
2019-04-05T17:02:41.966Z,55.27
2019-04-05T17:05:51.581Z,54.95
2019-04-05T17:09:00.266Z,54.59
2019-04-05T17:12:09.062Z,54.57
2019-04-05T17:15:17.646Z,54.65
2019-04-05T17:18:26.323Z,55.21
2019-04-05T17:21:35.960Z,55.47
2019-04-05T17:24:54.896Z,55.28
2019-04-05T17:28:02.020Z,55.22
2019-04-05T17:31:11.597Z,55.41
2019-04-05T17:34:20.275Z,55.30
2019-04-05T17:37:28.911Z,55.65
2019-04-05T17:40:47.844Z,55.55
2019-04-05T17:43:56.595Z,55.45
2019-04-05T17:47:05.160Z,55.16
2019-04-05T17:50:16.875Z,55.96
2019-04-05T17:53:27.063Z,55.89
2019-04-05T17:56:36.003Z,56.23
2019-04-05T17:59:46.099Z,56.04
2019-04-05T18:02:54.777Z,55.67
2019-04-05T18:06:13.624Z,55.56
2019-04-05T18:09:22.261Z,55.77
2019-04-05T18:12:30.912Z,56.29
2019-04-05T18:15:51.931Z,56.08
2019-04-05T18:18:49.851Z,55.84
2019-04-05T18:21:58.529Z,56.29
2019-04-05T18:25:07.430Z,56.29
2019-04-05T18:28:16.067Z,56.16
2019-04-05T18:31:24.619Z,56.35
2019-04-05T18:34:43.421Z,56.30
2019-04-05T18:37:52.287Z,56.58
2019-04-05T18:41:01.082Z,56.25
2019-04-05T18:44:09.704Z,56.59
2019-04-05T18:47:18.369Z,56.56
2019-04-05T18:50:26.940Z,56.85
2019-04-05T18:53:37.914Z,57.01
2019-04-05T18:56:46.005Z,56.97
2019-04-05T18:59:54.660Z,56.45
2019-04-05T19:03:03.406Z,56.15
2019-04-05T19:06:11.984Z,56.34
2019-04-05T19:09:21.102Z,56.50
2019-04-05T19:12:29.876Z,56.39
2019-04-05T19:15:38.549Z,56.86
2019-04-05T19:18:47.158Z,56.99
2019-04-05T19:21:55.879Z,56.98
2019-04-05T19:25:14.803Z,57.01
2019-04-05T19:28:24.947Z,56.99
2019-04-05T19:50:35.859Z,56.97
2019-04-05T19:53:44.541Z,57.21
2019-04-05T19:56:53.074Z,57.84
2019-04-05T20:00:02.528Z,57.58
2019-04-05T20:03:11.178Z,57.09
2019-04-05T20:06:19.803Z,57.36
2019-04-05T20:09:28.439Z,57.55
2019-04-05T20:12:37.167Z,57.44
2019-04-05T20:15:45.777Z,57.56
2019-04-05T20:19:04.555Z,57.36
2019-04-05T20:22:13.206Z,57.97
2019-04-05T20:25:21.744Z,57.64
2019-04-05T20:28:30.408Z,57.51
2019-04-05T20:31:39.016Z,57.42
2019-04-05T20:34:47.650Z,58.17
2019-04-05T20:37:56.296Z,57.87
2019-04-05T20:41:15.173Z,57.63
2019-04-05T20:44:23.715Z,57.59
2019-04-05T20:47:32.328Z,57.46
2019-04-05T20:50:40.854Z,57.47
2019-04-05T20:53:49.561Z,57.71
2019-04-05T20:56:58.076Z,57.78
2019-04-05T21:00:17.718Z,57.90
2019-04-05T21:03:26.313Z,58.49
2019-04-05T21:06:34.959Z,58.34
2019-04-05T21:09:53.873Z,58.41
2019-04-05T21:13:02.600Z,58.69
2019-04-05T21:16:11.228Z,58.75
2019-04-05T21:19:19.958Z,58.99
2019-04-05T21:22:28.467Z,59.37
2019-04-05T21:25:37.780Z,59.55
2019-04-05T21:28:46.404Z,59.78
2019-04-05T21:31:55.113Z,60.07
2019-04-05T21:35:03.749Z,60.27
2019-04-05T21:38:12.368Z,60.47
2019-04-05T21:41:21.059Z,60.61
2019-04-05T21:44:29.603Z,60.60
2019-04-05T21:47:48.405Z,60.96
2019-04-05T21:50:56.945Z,60.98
2019-04-05T21:54:05.479Z,60.89
2019-04-05T21:57:14.144Z,60.83
2019-04-05T22:00:27.616Z,60.92
2019-04-05T22:03:36.179Z,61.08
2019-04-05T22:06:55.013Z,61.28
2019-04-05T22:10:04.350Z,61.17
2019-04-05T22:13:23.271Z,61.09
2019-04-05T22:16:32.233Z,61.08
2019-04-05T22:19:51.553Z,61.23
2019-04-05T22:23:00.305Z,60.99
2019-04-05T22:26:08.929Z,60.78
2019-04-05T22:29:17.571Z,60.62
2019-04-05T22:32:26.222Z,60.60
2019-04-05T22:35:34.730Z,60.63
2019-04-05T22:38:43.441Z,60.63
2019-04-05T22:41:54.217Z,60.41
2019-04-05T22:45:02.858Z,60.45
2019-04-05T22:48:11.547Z,60.34
2019-04-05T22:51:20.159Z,60.52
2019-04-05T22:54:28.797Z,60.41
2019-04-05T22:57:37.437Z,60.25
2019-04-05T23:00:56.324Z,60.15
2019-04-05T23:04:04.886Z,60.10
2019-04-05T23:07:13.561Z,60.02
2019-04-05T23:10:22.270Z,60.06
2019-04-05T23:13:30.951Z,59.90
2019-04-05T23:16:39.627Z,59.92
2019-04-05T23:19:48.166Z,59.92
2019-04-05T23:22:56.918Z,59.75
2019-04-05T23:26:05.595Z,59.73
2019-04-05T23:29:24.526Z,59.12
2019-04-05T23:32:33.232Z,59.09
2019-04-05T23:35:43.697Z,59.15
2019-04-05T23:38:52.346Z,59.52
2019-04-05T23:42:00.975Z,59.71
2019-04-05T23:45:10.083Z,59.90
2019-04-05T23:48:18.611Z,60.12
2019-04-05T23:51:27.217Z,60.25
2019-04-05T23:54:35.830Z,60.15
2019-04-05T23:57:44.437Z,60.43
